Time;durP1;ratioP1;P1;durP2;ratioP2;P2;SDS_P1;SDS_P2;PMS_P1;PMS_P2;Temp;Humidity;BMP_temperature;BMP_pressure;BME280_temperature;BME280_humidity;BME280_pressure;Samples;Min_cycle;Max_cycle;Signal;HPM_P1;HPM_P2
2023/10/26 00:01:09;;;;;;;;;;;;;;;;;;7392676;19;1610;-44
2023/10/26 00:03:37;;;;;;;;;;;;;;;22.35;53.86;99840.66;7393257;19;1580;-43
2023/10/26 00:06:06;;;;;;;;;;;;;;;22.35;54.00;99827.19;7392123;19;1833;-44
2023/10/26 00:08:34;;;;;;;;;;;;;;;22.31;54.04;99840.16;7393629;19;1546;-44
2023/10/26 00:11:04;;;;;;;;;;;;;;;22.33;54.11;99818.44;7393788;19;1302;-44
2023/10/26 00:13:32;;;;;;;;;;;;;;;22.37;54.00;99827.84;7393488;19;1906;-44
2023/10/26 00:16:03;;;;;;;;;;;;;;;22.30;53.98;99825.00;7392698;19;1966;-44
2023/10/26 00:18:31;;;;;;;;;;;;;;;22.31;54.03;99834.78;7393136;19;1451;-44
2023/10/26 00:21:00;;;;;;;;;;;;;;;22.30;54.31;99830.38;7394271;19;1532;-44
2023/10/26 00:23:28;;;;;;;;;;;;;;;22.26;54.06;99815.63;7394435;19;1856;-44
2023/10/26 00:25:57;;;;;;;;;;;;;;;22.27;54.06;99821.84;7392729;19;1849;-43
2023/10/26 00:28:25;;;;;;;;;;;;;;;22.25;54.16;99819.34;7391763;19;1692;-44
2023/10/26 00:30:53;;;;;;;;;;;;;;;22.33;53.89;99818.44;7392090;19;1405;-43
2023/10/26 00:33:24;;;;;;;;;;;;;;;22.31;54.02;99817.78;7390037;19;1449;-44
2023/10/26 00:35:54;;;;;;;;;;;;;;;22.29;54.08;99817.13;7390667;19;1806;-44
2023/10/26 00:38:22;;;;;;;;;;;;;;;22.26;54.14;99810.22;7390428;19;1712;-58
2023/10/26 00:40:50;;;;;;;;;;;;;;;22.23;53.96;99811.41;7390937;19;1926;-44
2023/10/26 00:43:23;;;;;;;;;;;;;;;22.31;53.95;99807.00;7377394;19;1583;-44
2023/10/26 00:45:53;;;;;;;;;;;;;;;22.30;53.77;99797.25;7390851;19;1837;-47
2023/10/26 00:48:22;;;;;;;;;;;;;;;22.34;54.02;99814.72;7390969;19;1416;-44
2023/10/26 00:50:53;;;;;;;;;;;;;;;22.23;53.95;99800.63;7391695;19;1500;-43
2023/10/26 00:53:22;;;;;;;;;;;;;;;22.24;53.81;99775.41;7391985;19;1499;-44
2023/10/26 00:55:53;;;;;;;;;;;;;;;22.23;53.89;99776.41;7391271;19;1429;-44
2023/10/26 00:58:25;;;;;;;;;;;;;;;22.20;54.08;99782.16;7390337;19;1412;-44
2023/10/26 01:00:54;;;;;;;;;;;;;;;22.19;54.25;99788.53;7391478;19;1483;-43
2023/10/26 01:03:22;;;;;;;;;;;;;;;22.18;54.14;99776.13;7392077;19;1444;-44
2023/10/26 01:05:53;;;;;;;;;;;;;;;22.21;54.07;99766.81;7391944;19;1873;-43
2023/10/26 01:08:23;;;;;;;;;;;;;;;22.24;54.11;99779.94;7391815;19;1488;-43
2023/10/26 01:10:52;;;;;;;;;;;;;;;22.21;53.94;99775.72;7392907;19;1893;-43
2023/10/26 01:13:20;;;;;;;;;;;;;;;22.23;54.04;99765.63;7390750;19;1481;-44
2023/10/26 01:15:49;;;;;;;;;;;;;;;22.22;53.97;99753.19;7391432;19;1389;-44
2023/10/26 01:18:17;;;;;;;;;;;;;;;22.21;54.18;99767.66;7391419;19;1521;-43
2023/10/26 01:20:46;;;;;;;;;;;;;;;22.15;54.33;99768.38;7391497;19;1941;-43
2023/10/26 01:23:16;;;;;;;;;;;;;;;22.18;54.36;99776.13;7390639;19;1536;-43
2023/10/26 01:25:45;;;;;;;;;;;;;;;22.24;54.04;99778.13;7389995;19;1864;-43
2023/10/26 01:28:14;;;;;;;;;;;;;;;22.20;54.06;99775.91;7387820;19;2512;-43
2023/10/26 01:30:43;;;;;;;;;;;;;;;22.24;54.22;99778.13;7389970;19;1571;-43
2023/10/26 01:33:11;;;;;;;;;;;;;;;22.18;54.09;99786.88;7392360;19;1747;-43
2023/10/26 01:35:41;;;;;;;;;;;;;;;22.18;54.30;99786.88;7392984;19;1536;-43
2023/10/26 01:38:09;;;;;;;;;;;;;;;22.17;54.10;99790.59;7390930;19;1581;-44
2023/10/26 01:40:40;;;;;;;;;;;;;;;22.15;54.07;99786.41;7391674;19;1838;-43
2023/10/26 01:43:09;;;;;;;;;;;;;;;22.12;54.50;99792.97;7376749;19;1557;-44
2023/10/26 01:45:37;;;;;;;;;;;;;;;22.16;54.27;99788.91;7391875;19;1857;-44
2023/10/26 01:48:06;;;;;;;;;;;;;;;22.16;54.36;99799.69;7398761;19;1496;-43
2023/10/26 01:50:34;;;;;;;;;;;;;;;22.17;54.18;99797.81;7397722;19;1617;-44
2023/10/26 01:53:03;;;;;;;;;;;;;;;22.15;54.14;99778.31;7398631;19;1454;-43
2023/10/26 01:55:31;;;;;;;;;;;;;;;22.14;54.15;99779.31;7398366;19;1754;-43
2023/10/26 01:58:02;;;;;;;;;;;;;;;22.12;54.18;99776.81;7397522;19;1488;-44
2023/10/26 02:00:30;;;;;;;;;;;;;;;22.14;54.40;99779.31;7398905;19;1438;-44
2023/10/26 02:02:59;;;;;;;;;;;;;;;22.17;54.28;99795.97;7396921;19;1430;-43
2023/10/26 02:05:27;;;;;;;;;;;;;;;22.19;54.35;99799.31;7396076;19;1859;-43
2023/10/26 02:07:56;;;;;;;;;;;;;;;22.13;54.17;99786.56;7397831;19;1890;-44
2023/10/26 02:10:29;;;;;;;;;;;;;;;22.15;54.11;99797.16;7398316;19;1614;-43
2023/10/26 02:12:57;;;;;;;;;;;;;;;22.14;54.04;99795.47;7397959;19;1489;-44
2023/10/26 02:15:28;;;;;;;;;;;;;;;22.11;54.29;99790.47;7399054;19;1234;-43
2023/10/26 02:17:56;;;;;;;;;;;;;;;22.13;54.25;99794.66;7396973;19;1833;-44
2023/10/26 02:20:25;;;;;;;;;;;;;;;22.17;54.04;99797.81;7396723;19;1542;-43
2023/10/26 02:22:53;;;;;;;;;;;;;;;22.16;54.03;99799.69;7396543;19;1539;-43
2023/10/26 02:25:22;;;;;;;;;;;;;;;22.13;54.10;99788.44;7396480;19;1849;-43
2023/10/26 02:27:50;;;;;;;;;;;;;;;22.13;54.21;99788.44;7396377;19;1492;-44
2023/10/26 02:30:19;;;;;;;;;;;;;;;22.09;54.49;99793.34;7397661;19;1467;-44
2023/10/26 02:32:49;;;;;;;;;;;;;;;22.12;54.28;99798.34;7393852;19;1533;-44
2023/10/26 02:35:20;;;;;;;;;;;;;;;22.13;54.42;99813.50;7397825;19;1918;-43
2023/10/26 02:37:49;;;;;;;;;;;;;;;22.16;54.15;99821.22;7397412;19;1765;-43
2023/10/26 02:40:17;;;;;;;;;;;;;;;22.14;54.09;99814.34;7398357;19;1508;-44
2023/10/26 02:42:45;;;;;;;;;;;;;;;22.11;54.22;99812.00;7393254;19;1318;-44
2023/10/26 02:45:13;;;;;;;;;;;;;;;22.04;54.07;99817.25;7388699;19;1916;-44
2023/10/26 02:47:42;;;;;;;;;;;;;;;22.02;54.10;99822.84;7396941;19;1436;-44
2023/10/26 02:50:13;;;;;;;;;;;;;;;22.02;54.07;99819.28;7396849;19;1465;-43
2023/10/26 02:52:42;;;;;;;;;;;;;;;22.04;54.13;99807.34;7396386;19;1491;-44
2023/10/26 02:55:10;;;;;;;;;;;;;;;22.05;53.96;99794.72;7397776;19;1410;-43
2023/10/26 02:57:38;;;;;;;;;;;;;;;22.04;54.09;99809.19;7394047;19;1905;-44
2023/10/26 03:00:08;;;;;;;;;;;;;;;22.08;54.10;99817.75;7398443;19;1591;-43
2023/10/26 03:02:36;;;;;;;;;;;;;;;22.06;53.90;99793.69;7396549;19;1766;-43
2023/10/26 03:05:04;;;;;;;;;;;;;;;22.06;54.03;99804.44;7395025;19;1559;-43
2023/10/26 03:07:35;;;;;;;;;;;;;;;22.07;54.10;99800.75;7392861;19;1841;-43
2023/10/26 03:10:05;;;;;;;;;;;;;;;22.04;53.89;99784.94;7395789;19;1561;-43
2023/10/26 03:12:33;;;;;;;;;;;;;;;22.00;53.91;99807.88;7396243;19;1544;-43
2023/10/26 03:15:01;;;;;;;;;;;;;;;22.00;53.87;99802.47;7396144;19;1447;-44
2023/10/26 03:17:30;;;;;;;;;;;;;;;22.02;53.78;99813.91;7394810;19;1539;-43
2023/10/26 03:19:58;;;;;;;;;;;;;;;21.99;54.06;99814.28;7396197;19;1693;-43
2023/10/26 03:22:26;;;;;;;;;;;;;;;22.02;53.91;99816.59;7395979;19;1589;-43
2023/10/26 03:24:57;;;;;;;;;;;;;;;21.97;53.68;99805.53;7394258;19;1410;-44
2023/10/26 03:27:26;;;;;;;;;;;;;;;21.96;53.97;99818.16;7394326;19;1843;-44
2023/10/26 03:29:55;;;;;;;;;;;;;;;22.04;53.85;99803.78;7395793;19;1545;-43
2023/10/26 03:32:24;;;;;;;;;;;;;;;21.99;53.77;99817.81;7395544;19;1536;-43
2023/10/26 03:34:53;;;;;;;;;;;;;;;22.00;53.92;99802.47;7394547;19;1607;-44
2023/10/26 03:37:21;;;;;;;;;;;;;;;21.96;53.83;99793.91;7395333;19;1956;-43
2023/10/26 03:39:50;;;;;;;;;;;;;;;21.96;53.74;99809.25;7395601;19;1455;-43
2023/10/26 03:42:20;;;;;;;;;;;;;;;22.00;53.67;99789.88;7392948;19;1508;-43
2023/10/26 03:44:49;;;;;;;;;;;;;;;22.05;53.53;99789.34;7377136;19;1560;-44
2023/10/26 03:47:18;;;;;;;;;;;;;;;22.11;53.56;99795.84;7392724;19;1838;-43
2023/10/26 03:49:51;;;;;;;;;;;;;;;22.23;53.17;99787.16;7393281;19;1497;-44
2023/10/26 03:52:19;;;;;;;;;;;;;;;22.19;53.46;99793.94;7394094;19;1615;-44
2023/10/26 03:54:47;;;;;;;;;;;;;;;22.17;53.67;99785.19;7391626;19;1353;-44
2023/10/26 03:57:16;;;;;;;;;;;;;;;22.04;53.84;99780.44;7389915;19;1485;-44
2023/10/26 03:59:47;;;;;;;;;;;;;;;21.62;53.76;99695.59;7394298;19;1774;-43
2023/10/26 04:02:15;;;;;;;;;;;;;;;22.14;53.70;99764.00;7393392;19;1576;-43
2023/10/26 04:04:44;;;;;;;;;;;;;;;22.10;54.13;99768.06;7392611;19;1444;-43
2023/10/26 04:07:12;;;;;;;;;;;;;;;22.02;53.99;99762.75;7389696;19;1818;-43
2023/10/26 04:09:40;;;;;;;;;;;;;;;21.98;54.35;99761.44;7395079;19;1823;-43
2023/10/26 04:12:09;;;;;;;;;;;;;;;22.05;54.04;99767.78;7393819;19;2502;-43
2023/10/26 04:14:37;;;;;;;;;;;;;;;22.05;54.03;99765.09;7394670;19;1385;-43
2023/10/26 04:17:08;;;;;;;;;;;;;;;22.04;53.84;99769.66;7394418;19;1986;-43
2023/10/26 04:19:37;;;;;;;;;;;;;;;22.04;54.04;99788.50;7396136;19;1712;-43
2023/10/26 04:22:05;;;;;;;;;;;;;;;21.99;53.82;99790.06;7394424;19;1604;-44
2023/10/26 04:24:34;;;;;;;;;;;;;;;21.98;53.93;99793.75;7395065;19;1892;-43
2023/10/26 04:27:03;;;;;;;;;;;;;;;22.01;53.90;99820.31;7392869;19;1892;-43
2023/10/26 04:29:31;;;;;;;;;;;;;;;21.97;54.16;99784.00;7394514;19;1448;-43
2023/10/26 04:32:00;;;;;;;;;;;;;;;21.95;53.96;99781.50;7394290;19;1735;-43
2023/10/26 04:34:31;;;;;;;;;;;;;;;21.95;53.96;99786.03;7393300;19;1523;-43
2023/10/26 04:36:59;;;;;;;;;;;;;;;21.93;54.16;99772.75;7393729;19;1713;-43
2023/10/26 04:39:27;;;;;;;;;;;;;;;21.95;53.96;99772.59;7393703;19;1629;-43
2023/10/26 04:41:55;;;;;;;;;;;;;;;21.93;54.16;99755.78;7392830;19;1829;-43
2023/10/26 04:44:24;;;;;;;;;;;;;;;21.93;53.86;99762.00;7379288;19;1586;-43
2023/10/26 04:46:52;;;;;;;;;;;;;;;21.96;53.94;99766.16;7393052;19;1861;-43
2023/10/26 04:49:20;;;;;;;;;;;;;;;21.93;53.80;99755.78;7392890;19;1728;-44
2023/10/26 04:51:51;;;;;;;;;;;;;;;21.93;54.00;99775.44;7393833;19;1441;-43
2023/10/26 04:54:20;;;;;;;;;;;;;;;21.98;54.00;99769.50;7392468;19;1528;-43
2023/10/26 04:56:48;;;;;;;;;;;;;;;21.96;53.78;99760.78;7392219;19;1799;-43
2023/10/26 04:59:16;;;;;;;;;;;;;;;21.92;53.83;99781.84;7392948;19;1472;-43
2023/10/26 05:01:45;;;;;;;;;;;;;;;21.92;53.90;99764.84;7391945;19;1605;-44
2023/10/26 05:04:13;;;;;;;;;;;;;;;21.93;53.69;99763.84;7392719;19;1599;-43
2023/10/26 05:06:41;;;;;;;;;;;;;;;21.95;53.78;99786.03;7391614;19;1866;-43
2023/10/26 05:09:12;;;;;;;;;;;;;;;21.99;53.83;99787.34;7392365;19;1377;-43
2023/10/26 05:11:40;;;;;;;;;;;;;;;22.02;53.88;99786.97;7394188;19;1570;-43
2023/10/26 05:14:09;;;;;;;;;;;;;;;22.06;53.48;99788.28;7393193;19;1566;-43
2023/10/26 05:16:37;;;;;;;;;;;;;;;22.11;53.31;99794.00;7393114;19;1539;-43
2023/10/26 05:19:05;;;;;;;;;;;;;;;22.18;53.28;99767.19;7392588;19;1551;-43
2023/10/26 05:21:34;;;;;;;;;;;;;;;22.29;53.21;99784.81;7390024;19;1380;-43
2023/10/26 05:24:03;;;;;;;;;;;;;;;22.29;53.22;99800.97;7392375;19;1535;-43
2023/10/26 05:26:34;;;;;;;;;;;;;;;22.33;53.25;99804.97;7391589;19;1854;-43
2023/10/26 05:29:04;;;;;;;;;;;;;;;22.40;53.08;99817.53;7392320;19;1815;-43
2023/10/26 05:31:32;;;;;;;;;;;;;;;22.47;52.96;99816.81;7392383;19;1909;-43
2023/10/26 05:34:01;;;;;;;;;;;;;;;22.44;52.77;99816.16;7391562;19;1580;-43
2023/10/26 05:36:29;;;;;;;;;;;;;;;22.50;52.96;99813.75;7391515;19;1583;-43
2023/10/26 05:38:57;;;;;;;;;;;;;;;22.46;52.88;99826.72;7391845;19;1571;-43
2023/10/26 05:41:25;;;;;;;;;;;;;;;22.52;52.77;99817.94;7393516;19;1227;-43
2023/10/26 05:43:56;;;;;;;;;;;;;;;22.54;52.67;99815.91;7376851;19;1724;-43
2023/10/26 05:46:25;;;;;;;;;;;;;;;22.50;52.89;99819.13;7390355;19;1848;-43
2023/10/26 05:48:53;;;;;;;;;;;;;;;22.44;53.03;99824.25;7390925;19;1464;-43
2023/10/26 05:51:21;;;;;;;;;;;;;;;22.41;53.10;99823.75;7389856;19;1449;-43
2023/10/26 05:53:50;;;;;;;;;;;;;;;22.39;53.31;99832.00;7391389;19;1468;-43
2023/10/26 05:56:18;;;;;;;;;;;;;;;22.31;53.37;99823.16;7390851;19;1421;-44
2023/10/26 05:58:46;;;;;;;;;;;;;;;22.39;53.20;99817.72;7387889;19;1724;-43
2023/10/26 06:01:17;;;;;;;;;;;;;;;22.14;54.09;99820.53;7388033;19;1830;-43
2023/10/26 06:03:45;;;;;;;;;;;;;;;22.23;54.06;99815.97;7389048;19;1529;-43
2023/10/26 06:06:14;;;;;;;;;;;;;;;22.20;54.12;99829.75;7388603;19;1853;-43
2023/10/26 06:08:42;;;;;;;;;;;;;;;22.05;54.50;99845.88;7387411;19;1751;-43
2023/10/26 06:11:11;;;;;;;;;;;;;;;22.09;54.42;99836.41;7389815;19;1025;-43
2023/10/26 06:13:39;;;;;;;;;;;;;;;22.06;54.65;99842.16;7386448;19;1936;-43
2023/10/26 06:16:12;;;;;;;;;;;;;;;22.15;54.15;99837.56;7388827;19;1827;-43
2023/10/26 06:18:44;;;;;;;;;;;;;;;22.15;54.42;99834.88;7390853;19;1393;-44
2023/10/26 06:21:13;;;;;;;;;;;;;;;22.06;54.54;99823.28;7387383;19;1733;-43
2023/10/26 06:23:41;;;;;;;;;;;;;;;22.06;54.85;99834.06;7385297;19;1594;-43
2023/10/26 06:26:09;;;;;;;;;;;;;;;22.00;54.66;99815.94;7386922;19;1911;-43
2023/10/26 06:28:37;;;;;;;;;;;;;;;22.00;54.96;99821.31;7381724;19;1951;-43
2023/10/26 06:31:14;;;;;;;;;;;;;;;22.09;54.73;99822.94;7383079;19;1818;-43
2023/10/26 06:33:45;;;;;;;;;;;;;;;22.15;54.48;99813.34;7389100;19;1476;-43
2023/10/26 06:36:13;;;;;;;;;;;;;;;22.24;54.33;99807.75;7395500;19;1857;-43
2023/10/26 06:38:42;;;;;;;;;;;;;;;22.24;54.16;99817.66;7397232;19;1556;-43
2023/10/26 06:41:11;;;;;;;;;;;;;;;22.26;54.34;99804.00;7394748;19;1296;-43
2023/10/26 06:43:40;;;;;;;;;;;;;;;22.34;54.24;99822.78;7396323;19;2091;-43
2023/10/26 06:46:09;;;;;;;;;;;;;;;22.29;54.29;99817.97;7380786;19;1405;-43
2023/10/26 06:48:38;;;;;;;;;;;;;;;22.30;54.22;99821.47;7394125;19;1888;-68
2023/10/26 06:51:08;;;;;;;;;;;;;;;22.26;54.47;99847.94;7395782;19;1637;-43
2023/10/26 06:53:37;;;;;;;;;;;;;;;22.27;54.51;99838.03;7396071;19;1737;-43
2023/10/26 06:56:11;;;;;;;;;;;;;;;22.33;54.45;99848.06;7396297;19;1827;-43
2023/10/26 06:58:40;;;;;;;;;;;;;;;22.29;54.73;99838.69;7396336;19;1491;-43
2023/10/26 07:01:09;;;;;;;;;;;;;;;22.40;54.46;99838.22;7395304;19;1380;-43
2023/10/26 07:03:37;;;;;;;;;;;;;;;;;;7392899;19;2348;-43
2023/10/26 07:06:05;;;;;;;;;;;;;;;22.46;54.57;99831.28;7393066;19;1380;-43
2023/10/26 07:08:36;;;;;;;;;;;;;;;22.44;54.50;99831.47;7393538;19;1845;-44
2023/10/26 07:11:07;;;;;;;;;;;;;;;22.34;54.62;99847.03;7397400;19;1056;-43
2023/10/26 07:13:35;;;;;;;;;;;;;;;22.41;54.57;99819.19;7394932;19;1477;-43
2023/10/26 07:16:04;;;;;;;;;;;;;;;22.39;54.67;99815.84;7396083;19;1786;-43
2023/10/26 07:18:32;;;;;;;;;;;;;;;22.43;54.43;99819.03;7395734;19;1643;-43
2023/10/26 07:21:00;;;;;;;;;;;;;;;22.43;54.54;99816.34;7396678;19;1841;-43
2023/10/26 07:23:28;;;;;;;;;;;;;;;22.39;54.63;99817.72;7395615;19;1940;-43
2023/10/26 07:25:59;;;;;;;;;;;;;;;22.39;54.89;99826.63;7397417;19;1856;-48
2023/10/26 07:28:28;;;;;;;;;;;;;;;22.34;55.18;99825.50;7394325;19;1955;-43
2023/10/26 07:30:56;;;;;;;;;;;;;;;22.31;54.97;99828.56;7395211;19;1571;-43
2023/10/26 07:33:24;;;;;;;;;;;;;;;22.27;55.29;99816.47;7393491;19;1729;-43
2023/10/26 07:35:55;;;;;;;;;;;;;;;22.33;55.11;99811.19;7394242;19;1566;-43
2023/10/26 07:38:24;;;;;;;;;;;;;;;22.31;55.05;99826.69;7393655;19;1479;-43
2023/10/26 07:40:53;;;;;;;;;;;;;;;22.34;54.99;99833.56;7396815;19;1007;-43
2023/10/26 07:43:23;;;;;;;;;;;;;;;22.33;55.22;99826.53;7393092;19;1596;-43
2023/10/26 07:45:52;;;;;;;;;;;;;;;22.40;55.06;99828.31;7380325;19;1567;-46
2023/10/26 07:48:20;;;;;;;;;;;;;;;22.35;55.34;99836.09;7392580;19;1855;-43
2023/10/26 07:50:50;;;;;;;;;;;;;;;22.42;55.00;99836.19;7393186;19;1562;-43
2023/10/26 07:53:19;;;;;;;;;;;;;;;22.39;55.33;99836.56;7393675;19;1813;-43
2023/10/26 07:55:47;;;;;;;;;;;;;;;22.47;54.96;99828.41;7394810;19;1611;-43
2023/10/26 07:58:15;;;;;;;;;;;;;;;22.36;55.36;99845.84;7395510;19;1757;-43
2023/10/26 08:00:47;;;;;;;;;;;;;;;22.33;55.40;99837.28;7395059;19;1568;-43
2023/10/26 08:03:15;;;;;;;;;;;;;;;22.39;55.55;99850.03;7395493;19;1784;-44
2023/10/26 08:05:44;;;;;;;;;;;;;;;22.36;55.57;99847.69;7393697;19;1527;-43
2023/10/26 08:08:12;;;;;;;;;;;;;;;22.29;55.64;99841.38;7392985;19;1840;-43
2023/10/26 08:10:40;;;;;;;;;;;;;;;22.27;55.35;99838.03;7394312;19;1725;-43
2023/10/26 08:13:08;;;;;;;;;;;;;;;22.15;55.51;99859.09;7393831;19;1812;-43
2023/10/26 08:15:37;;;;;;;;;;;;;;;22.13;54.81;99840.44;7381193;19;2005;-43
2023/10/26 08:18:08;;;;;;;;;;;;;;;22.16;54.50;99844.59;7390529;19;1781;-43
2023/10/26 08:20:36;;;;;;;;;;;;;;;22.26;54.24;99849.78;7390299;19;1909;-43
2023/10/26 08:23:04;;;;;;;;;;;;;;;22.26;54.21;99847.09;7391209;19;1790;-43
2023/10/26 08:25:36;;;;;;;;;;;;;;;22.25;53.94;99843.56;7391444;19;1729;-43
2023/10/26 08:28:05;;;;;;;;;;;;;;;22.33;54.09;99848.06;7389362;19;1853;-43
2023/10/26 08:30:33;;;;;;;;;;;;;;;22.34;53.84;99844.34;7383954;19;1566;-43
2023/10/26 08:33:04;;;;;;;;;;;;;;;22.49;53.74;99842.53;7383555;19;1621;-43
2023/10/26 08:35:35;;;;;;;;;;;;;;;22.31;54.18;99847.41;7381500;19;1523;-43
2023/10/26 08:38:03;;;;;;;;;;;;;;;22.31;53.97;99844.72;7388942;19;1546;-43
2023/10/26 08:40:31;;;;;;;;;;;;;;;22.30;53.50;99843.03;7390869;19;1547;-43
2023/10/26 08:43:00;;;;;;;;;;;;;;;22.23;53.71;99859.88;7392077;19;1580;-43
2023/10/26 08:45:29;;;;;;;;;;;;;;;22.15;53.53;99853.72;7378549;19;1825;-43
2023/10/26 08:47:59;;;;;;;;;;;;;;;22.22;53.21;99852.84;7385740;19;1877;-43
2023/10/26 08:50:27;;;;;;;;;;;;;;;22.35;53.06;99846.03;7387831;19;1654;-43
2023/10/26 08:52:58;;;;;;;;;;;;;;;22.31;52.89;99829.38;7388505;19;1547;-43
2023/10/26 08:55:28;;;;;;;;;;;;;;;22.33;52.90;99829.22;7385711;19;1659;-45
2023/10/26 08:58:01;;;;;;;;;;;;;;;22.39;52.54;99825.81;7392294;19;1381;-45
2023/10/26 09:00:31;;;;;;;;;;;;;;;22.33;52.56;99837.28;7390885;19;1531;-45
2023/10/26 09:03:00;;;;;;;;;;;;;;;22.35;52.66;99824.47;7391739;19;1969;-46
2023/10/26 09:05:29;;;;;;;;;;;;;;;22.22;53.19;99836.66;7392063;19;1278;-45
2023/10/26 09:08:00;;;;;;;;;;;;;;;22.10;53.58;99840.78;7391714;19;1852;-50
2023/10/26 09:10:31;;;;;;;;;;;;;;;22.10;53.55;99842.63;7392281;19;1807;-44
2023/10/26 09:13:00;;;;;;;;;;;;;;;22.14;53.59;99834.00;7391167;19;1520;-44
2023/10/26 09:15:28;;;;;;;;;;;;;;;22.23;52.33;99832.94;7392669;19;1236;-45
2023/10/26 09:17:57;;;;;;;;;;;;;;;22.29;52.06;99827.91;7391285;19;1497;-45
2023/10/26 09:20:26;;;;;;;;;;;;;;;22.26;51.97;99825.56;7391870;19;1748;-45
2023/10/26 09:22:55;;;;;;;;;;;;;;;22.39;51.75;99820.41;7389895;19;1627;-44
2023/10/26 09:25:26;;;;;;;;;;;;;;;22.45;51.58;99819.69;7390940;19;1716;-45
2023/10/26 09:28:03;;;;;;;;;;;;;;;22.51;51.49;99834.28;7389020;19;1845;-45
2023/10/26 09:30:33;;;;;;;;;;;;;;;22.44;51.48;99828.78;7392572;19;1827;-45
2023/10/26 09:33:02;;;;;;;;;;;;;;;22.38;51.64;99829.50;7390982;19;1571;-45
2023/10/26 09:35:31;;;;;;;;;;;;;;;22.40;51.61;99825.63;7392434;19;1857;-45
2023/10/26 09:38:00;;;;;;;;;;;;;;;22.32;51.73;99803.28;7390337;19;1579;-45
2023/10/26 09:40:30;;;;;;;;;;;;;;;22.47;51.04;99812.25;7391406;19;1828;-45
2023/10/26 09:42:59;;;;;;;;;;;;;;;22.60;50.60;99812.50;7391136;19;1626;-46
2023/10/26 09:45:28;;;;;;;;;;;;;;;22.47;51.00;99806.88;7379997;19;1398;-50
2023/10/26 09:47:57;;;;;;;;;;;;;;;22.28;51.63;99808.19;7390181;19;1880;-45
2023/10/26 09:50:26;;;;;;;;;;;;;;;22.32;51.36;99787.13;7389717;19;1623;-45
2023/10/26 09:52:55;;;;;;;;;;;;;;;22.43;51.38;99794.78;7391930;19;1802;-45
2023/10/26 09:55:24;;;;;;;;;;;;;;;22.47;50.91;99789.88;7391714;19;1545;-46
2023/10/26 09:57:58;;;;;;;;;;;;;;;22.40;51.18;99784.34;7391408;19;1791;-45
2023/10/26 10:00:26;;;;;;;;;;;;;;;;;;7389798;19;2134;-45
2023/10/26 10:03:09;;;;;;;;;;;;;;;22.33;51.28;99778.88;7389615;19;1970;-46
2023/10/26 10:05:39;;;;;;;;;;;;;;;22.18;51.52;99730.34;7390186;19;1461;-45
2023/10/26 10:08:08;;;;;;;;;;;;;;;22.46;51.26;99767.47;7396474;19;1843;-45
2023/10/26 10:10:36;;;;;;;;;;;;;;;22.33;51.92;99776.19;7398431;19;1436;-46
2023/10/26 10:13:07;;;;;;;;;;;;;;;22.38;52.00;99781.00;7397809;19;1904;-45
2023/10/26 10:15:38;;;;;;;;;;;;;;;22.47;51.84;99762.94;7399542;19;1523;-46
2023/10/26 10:18:04;;;;;;;;;;;;;;;22.49;51.98;99761.72;7396251;19;2526;-43
2023/10/26 10:20:33;;;;;;;;;;;;;;;22.49;52.02;99753.66;7398563;19;1910;-43
2023/10/26 10:22:59;;;;;;;;;;;;;;;22.39;52.15;99759.28;7396892;19;1914;-44
2023/10/26 10:25:42;;;;;;;;;;;;;;;22.49;52.16;99766.28;7398007;19;1745;-45
2023/10/26 10:28:14;;;;;;;;;;;;;;;22.53;51.93;99760.34;7395827;19;1838;-43
2023/10/26 10:30:55;;;;;;;;;;;;;;;22.41;52.21;99761.81;7397633;19;1724;-43
2023/10/26 10:33:25;;;;;;;;;;;;;;;22.35;52.27;99760.66;7397665;19;1725;-43
2023/10/26 10:36:03;;;;;;;;;;;;;;;22.30;52.99;99751.47;7396488;19;1480;-43
2023/10/26 10:38:31;;;;;;;;;;;;;;;22.38;52.76;99752.25;7395410;19;1812;-43
2023/10/26 10:41:07;;;;;;;;;;;;;;;22.56;52.60;99735.72;7395687;19;1644;-43
2023/10/26 10:43:40;;;;;;;;;;;;;;;22.82;51.97;99734.44;7396360;19;1891;-43
2023/10/26 10:46:15;;;;;;;;;;;;;;;22.81;52.04;99748.94;7381138;19;1621;-43
2023/10/26 10:48:58;;;;;;;;;;;;;;;22.94;52.06;99735.66;7396658;19;1854;-43
2023/10/26 10:51:29;;;;;;;;;;;;;;;22.96;52.00;99736.31;7396726;19;1723;-43
2023/10/26 10:53:58;;;;;;;;;;;;;;;23.06;51.84;99729.81;7396853;19;1624;-43
2023/10/26 10:56:27;;;;;;;;;;;;;;;22.97;52.35;99721.78;7395704;19;1480;-43
2023/10/26 10:58:58;;;;;;;;;;;;;;;22.99;52.49;99725.13;7396716;19;1853;-55
2023/10/26 11:01:27;;;;;;;;;;;;;;;22.89;53.06;99729.97;7394941;19;1868;-43
2023/10/26 11:04:06;;;;;;;;;;;;;;;22.90;52.55;99720.88;7394887;19;1496;-44
2023/10/26 11:06:34;;;;;;;;;;;;;;;22.95;52.26;99718.44;7396404;19;1520;-43
2023/10/26 11:09:03;;;;;;;;;;;;;;;22.87;52.64;99707.75;7397042;19;1853;-43
2023/10/26 11:11:33;;;;;;;;;;;;;;;22.83;52.64;99704.59;7398430;19;1045;-43
2023/10/26 11:14:10;;;;;;;;;;;;;;;22.80;52.92;99698.72;7399170;19;1673;-43
2023/10/26 11:16:39;;;;;;;;;;;;;;;22.80;53.19;99698.72;7397535;19;1927;-43
2023/10/26 11:19:08;;;;;;;;;;;;;;;22.77;53.18;99691.88;7394943;19;1755;-43
2023/10/26 11:21:36;;;;;;;;;;;;;;;22.71;52.88;99694.47;7395915;19;1366;-44
2023/10/26 11:24:04;;;;;;;;;;;;;;;22.62;52.96;99689.19;7396709;19;1834;-43
2023/10/26 11:26:33;;;;;;;;;;;;;;;22.61;53.15;99679.41;7395700;19;1455;-43
2023/10/26 11:29:03;;;;;;;;;;;;;;;22.67;53.11;99679.69;7395116;19;1855;-43
2023/10/26 11:31:42;;;;;;;;;;;;;;;22.64;53.28;99673.66;7397772;19;1069;-43
2023/10/26 11:34:11;;;;;;;;;;;;;;;22.63;52.88;99654.97;7396654;19;1828;-43
2023/10/26 11:36:40;;;;;;;;;;;;;;;22.71;52.74;99665.66;7395381;19;1745;-43
2023/10/26 11:39:08;;;;;;;;;;;;;;;22.74;53.01;99675.22;7396433;19;1472;-43
2023/10/26 11:41:36;;;;;;;;;;;;;;;22.71;52.98;99667.53;7396657;19;1576;-43
2023/10/26 11:44:05;;;;;;;;;;;;;;;22.66;53.20;99657.31;7397808;19;1621;-42
2023/10/26 11:46:34;;;;;;;;;;;;;;;22.68;53.29;99657.09;7381188;19;1842;-44
2023/10/26 11:49:06;;;;;;;;;;;;;;;22.65;53.28;99636.78;7394056;19;1864;-43
2023/10/26 11:51:35;;;;;;;;;;;;;;;22.66;53.20;99627.69;7394801;19;1900;-43
2023/10/26 11:54:13;;;;;;;;;;;;;;;22.69;53.14;99632.69;7396205;19;1805;-43
2023/10/26 11:56:41;;;;;;;;;;;;;;;22.66;53.13;99638.47;7396421;19;1543;-43
2023/10/26 11:59:10;;;;;;;;;;;;;;;22.60;53.46;99629.25;7395992;19;1800;-47
2023/10/26 12:01:39;;;;;;;;;;;;;;;22.58;53.38;99620.53;7395082;19;1590;-43
2023/10/26 12:04:12;;;;;;;;;;;;;;;22.58;53.44;99628.59;7396320;19;1566;-43
2023/10/26 12:06:41;;;;;;;;;;;;;;;22.74;53.06;99632.09;7391633;19;1484;-43
2023/10/26 12:09:09;;;;;;;;;;;;;;;22.60;53.18;99631.94;7394151;19;1866;-43
2023/10/26 12:11:39;;;;;;;;;;;;;;;22.50;53.62;99636.78;7393876;19;1998;-43
2023/10/26 12:14:07;;;;;;;;;;;;;;;22.46;53.54;99632.75;7395632;19;1421;-43
2023/10/26 12:16:36;;;;;;;;;;;;;;;22.46;53.59;99627.38;7393777;19;1502;-43
2023/10/26 12:19:04;;;;;;;;;;;;;;;22.48;53.78;99613.72;7393991;19;1511;-43
2023/10/26 12:21:35;;;;;;;;;;;;;;;22.50;53.50;99627.84;7393902;19;1392;-44
2023/10/26 12:24:03;;;;;;;;;;;;;;;22.49;53.59;99628.88;7393756;19;1489;-44
2023/10/26 12:26:31;;;;;;;;;;;;;;;22.47;53.52;99617.47;7393948;19;1813;-44
2023/10/26 12:29:00;;;;;;;;;;;;;;;22.46;53.59;99626.56;7394099;19;1861;-43
2023/10/26 12:31:28;;;;;;;;;;;;;;;22.43;53.81;99619.69;7391958;19;1587;-43
2023/10/26 12:33:56;;;;;;;;;;;;;;;22.43;53.81;99617.81;7395224;19;1834;-43
2023/10/26 12:36:25;;;;;;;;;;;;;;;22.40;54.05;99611.97;7394480;19;1479;-44
2023/10/26 12:38:56;;;;;;;;;;;;;;;22.37;53.82;99612.34;7395437;19;1730;-42
2023/10/26 12:41:24;;;;;;;;;;;;;;;22.34;53.91;99610.00;7394801;19;1459;-42
2023/10/26 12:43:52;;;;;;;;;;;;;;;22.34;54.08;99616.25;7394622;19;1823;-43
2023/10/26 12:46:20;;;;;;;;;;;;;;;22.35;54.01;99611.69;7378775;19;2513;-42
2023/10/26 12:48:49;;;;;;;;;;;;;;;22.59;53.73;99597.09;7391959;19;1853;-43
2023/10/26 12:51:17;;;;;;;;;;;;;;;22.56;53.54;99584.84;7394069;19;1539;-43
2023/10/26 12:53:45;;;;;;;;;;;;;;;22.62;53.50;99600.25;7391338;19;1568;-43
2023/10/26 12:56:16;;;;;;;;;;;;;;;22.70;53.39;99607.41;7393607;19;1507;-43
2023/10/26 12:58:44;;;;;;;;;;;;;;;22.79;53.10;99608.13;7393808;19;1583;-44
2023/10/26 13:01:13;;;;;;;;;;;;;;;22.68;53.35;99603.22;7393380;19;1519;-43
2023/10/26 13:03:41;;;;;;;;;;;;;;;22.65;51.95;99604.44;7392758;19;1419;-43
2023/10/26 13:06:09;;;;;;;;;;;;;;;22.67;51.99;99598.88;7393410;19;1404;-43
2023/10/26 13:08:38;;;;;;;;;;;;;;;22.72;49.27;99601.81;7393079;19;1853;-43